Palm Beach International Airport

Date: 2024-06-11 10:53:00Z

Type: METAR

Weather: Thunderstorms

Winds: Winds Calm

Visibility: 10+

Ceiling (AGL FT): Clouds SCATTERED at 2900, SCATTERED at 7500, BROKEN at 15000, BROKEN at 25000

RAW METAR: KPBI 111053Z COR 00000KT 10SM TS SCT029CB SCT075 BKN150 25/24 A2989 RMK AO2 LTG DSNT NE AND E RAE22 SLP122 OCNL LTGICCG NE TS NE MOV NE CB DSNT NE-E P0031 T02500239

project-image